Hoppa till innehåll

METAR väder och rapporter - EDDF

Nedan listas information från vald flygplats. Andra METARs finns längre ned på sidan. Kontakta oss om någon saknas eller skriv in egen ICAO-kod.

Coded METAR: 2022/06/26 08:20 EDDF 260820Z 23005KT 150V310 9999 FEW038 24/14 Q1015 NOSIG

Weather Report @ EDDF

Issued: 26th Jun 2022 at 10:20 CEST

Wind: light breeze from the Southwest (230 degrees) at 5 knots (6 mph, 9 kph, 3 mps, Force 2)
Wind: direction varying between from South-Southeast (150 degrees) and from the Northwest (310 degrees)
Visibility: 10km or more
Cloud: a few clouds at 3800 feet
Temperature: 75F / 24C
Dewpoint: 57F / 14C
Humidity: 54%
Pressure: 1015 hPa
Weather: no significant change expected

Coded TAF: 2022/06/26 06:27 TAF TAF EDDF 260500Z 2606/2712 20005KT CAVOK BECMG 2607/2610 26005KT BECMG 2613/2616 32007KT PROB30 TEMPO 2613/2617 SHRA BKN050CB BECMG 2617/2620 02007KT TEMPO 2623/2706 SHRA BKN045CB PROB40 TEMPO 2623/2703 24020G35KT 3000 TSRA BECMG 2702/2705 26005KT PROB40 TEMPO 2703/2706 BKN008

Weather Forecast @ EDDF

Issued: 26th Jun 2022 at 08:27 CEST

Valid : 26th Jun 08:00 until 27th Jun 14:00 CEST

08:00 CEST
Wind: light breeze from the South-Southwest (200 degrees) at 5 knots (6 mph, 9 kph, 3 mps, Force 2)
Weather: good visibility and no low cloud (ceiling and visibility OK)

09:00 CEST to 12:00 CEST
becoming:

Wind: light breeze from the West (260 degrees) at 5 knots (6 mph, 9 kph, 3 mps, Force 2)

15:00 CEST to 18:00 CEST
becoming:

Wind: gentle breeze from the Northwest (320 degrees) at 7 knots (8 mph, 13 kph, 4 mps, Force 3)

01:00 CET to 01:00 CET
there is a 30% chance of:


15:00 CEST to 19:00 CEST
Occasional

Weather: showers of rain
Cloud: broken at 5000 feet with cumulonimbus

19:00 CEST to 22:00 CEST
becoming:

Wind: gentle breeze from North-Northeast (020 degrees) at 7 knots (8 mph, 13 kph, 4 mps, Force 3)

01:00 CEST to 08:00 CEST
Occasional

Weather: showers of rain
Cloud: broken at 4500 feet with cumulonimbus

01:00 CET to 01:00 CET
there is a 40% chance of:


01:00 CEST to 05:00 CEST
Occasional

Wind: fresh breeze from West-Southwest (240 degrees) at 20 knots (23 mph, 37 kph, 10 mps, Force 5) gusting to 35 knots (40 mph 65 kph, 18 mps)
Visibility: 3000 metres
Weather: thunderstorm with rain

04:00 CEST to 07:00 CEST
becoming:

Wind: light breeze from the West (260 degrees) at 5 knots (6 mph, 9 kph, 3 mps, Force 2)

01:00 CET to 01:00 CET
there is a 40% chance of:


05:00 CEST to 08:00 CEST
Occasional

Cloud: broken at 800 feet

Internet delivery of weather data is not secure or reliable enough for operational purposes.

NEVER RELY ON THE OUTPUT OF THIS SCRIPT TO MAKE DECISIONS ABOUT ANYTHING IN WHICH THE WEATHER FORECAST AND ITS INTERPRETATION COULD BE AN ISSUE OF SAFETY.

Andra intressanta METARs

Klicka på önskad rubrik nedan för att visa nuvarande väder för den platsen.

Avstånd från stationen: NO 27kmESGG - Göteborg (Landvetter)
Uppdaterad: 2022-06-26 09:50
 Vind från ONO
Vind: ONO 15 km/h
Temperatur: 19°C
Daggpunkt: 15°C
Luftfuktighet: 78%
Barometer: 1015 hPa
Moln: Delvis molnigt
Sikt: 10 km
Molninformation: Delvis molnigt 762 m
2022/06/26 07:50 ESGG 260750Z 06008KT 9999 SCT025CB 19/15 Q1015
Delvis molnigt
Delvis molnigt
  Visa detaljer för Göteborg (Landvetter)
Avstånd från stationen: N 28kmESGP - Göteborg (Säve)
Uppdaterad: 2022-06-26 09:50
 Vind från V
Vind: V 13 km/h
Temperatur: 18°C
Daggpunkt: 16°C
Luftfuktighet: 88%
Barometer: 1016 hPa
Summering: Skurar i närheten
Moln: Övervägande molnigt
Sikt: 10 km
Molninformation: Några få moln 488 m
Övervägande molnigt 2316 m
2022/06/26 07:50 ESGP 260750Z 27007KT 240V320 9999 VCSH FEW016CB BKN076 18/16 Q1016
Nearby showers, Övervägande molnigt
Nearby showers
Övervägande molnigt
  Visa detaljer för Göteborg (Säve)
Avstånd från stationen: NO 419kmESSA - Stockholm (Arlanda)
Uppdaterad: 2022-06-26 09:50
 Vind från SSO
Vind: SSO 7 km/h
Temperatur: 24°C
Daggpunkt: 12°C
Luftfuktighet: 47%
Barometer: 1019 hPa
Summering: Klart
Sikt: mer än 10 km
2022/06/26 07:50 ESSA 260750Z 16004KT 110V200 CAVOK 24/12 Q1019 NOSIG
Klart
Klart
  Visa detaljer för Stockholm (Arlanda)
Avstånd från stationen: ONO 404kmESSB - Stockholm (Bromma)
Uppdaterad: 2022-06-26 09:50
 Vind från varierande
Vind: varierande 6 km/h
Temperatur: 26°C
Daggpunkt: 11°C
Luftfuktighet: 39%
Barometer: 1019 hPa
Moln: Klart
Sikt: 10 km
2022/06/26 07:50 ESSB 260750Z AUTO VRB03KT 9999 NCD 26/11 Q1019
Klart
Klart
  Visa detaljer för Stockholm (Bromma)
Avstånd från stationen: ONO 323kmESKN - Stockholm (Skavsta)
Uppdaterad: 2022-06-26 09:50
 Vind från O
Vind: O 9 km/h
Temperatur: 25°C
Daggpunkt: 14°C
Luftfuktighet: 51%
Barometer: 1019 hPa
Summering: Klart
Sikt: mer än 10 km
2022/06/26 07:50 ESKN 260750Z 10005KT 050V140 CAVOK 25/14 Q1019
Klart
Klart
  Visa detaljer för Stockholm (Skavsta)
Avstånd från stationen: SSO 238kmESMS - Malmö flygplats (Sturup)
Uppdaterad: 2022-06-26 09:50
 Vind från SO
Vind: SO 13 km/h
Temperatur: 23°C
Daggpunkt: 17°C
Luftfuktighet: 69%
Barometer: 1015 hPa
Summering: Klart
Sikt: mer än 10 km
2022/06/26 07:50 ESMS 260750Z 13007KT 100V160 CAVOK 23/17 Q1015
Klart
Klart
  Visa detaljer för Malmö flygplats (Sturup)
Avstånd från stationen: O 382kmESSV - Visby flygplats
Uppdaterad: 2022-06-26 09:50
 Vind från SSO
Vind: SSO 13 km/h
Temperatur: 28°C
Värmeindex: 28°C
Daggpunkt: 16°C
Luftfuktighet: 48%
Barometer: 1019 hPa
Summering: Klart
Sikt: mer än 10 km
2022/06/26 07:50 ESSV 260750Z 16007KT 140V220 CAVOK 28/16 Q1019
Klart
Klart
  Visa detaljer för Visby flygplats
Avstånd från stationen: NNO 92kmESGT - Trollhättan
Uppdaterad: 2022-06-26 09:50
 Vind från varierande
Vind: varierande 6 km/h
Temperatur: 22°C
Daggpunkt: 16°C
Luftfuktighet: 69%
Barometer: 1016 hPa
Summering: Lätt regn
Moln: Övervägande molnigt
Sikt: 10 km
Molninformation: Övervägande molnigt 2499 m
Övervägande molnigt 3353 m
2022/06/26 07:50 ESGT 260750Z AUTO VRB03KT 9999 -RA BKN082/// BKN110/// 22/16 Q1016
Lätt regn, Övervägande molnigt
Lätt regn
Övervägande molnigt
  Visa detaljer för Trollhättan
Avstånd från stationen: ONO 129kmESGJ - Jönköpings flygplats
Uppdaterad: 2022-06-26 09:50
 Vind från O
Vind: O 11 km/h
Temperatur: 25°C
Daggpunkt: 16°C
Luftfuktighet: 57%
Barometer: 1017 hPa
Moln: Klart
Sikt: 10 km
2022/06/26 07:50 ESGJ 260750Z AUTO 09006KT 9999 NCD 25/16 Q1017
Klart
Klart
  Visa detaljer för Jönköpings flygplats
Avstånd från stationen: NNO 229kmESOK - Karlstad
Uppdaterad: 2022-06-26 09:50
 Vind från SO
Vind: SO 7 km/h
Temperatur: 24°C
Daggpunkt: 11°C
Luftfuktighet: 44%
Barometer: 1017 hPa
Moln: Delvis molnigt
Sikt: 10 km
Molninformation: Delvis molnigt 2652 m
2022/06/26 07:50 ESOK 260750Z AUTO 13004KT 090V160 9999 SCT087/// 24/11 Q1017
Delvis molnigt
Delvis molnigt
  Visa detaljer för Karlstad
Avstånd från stationen: N 643kmESNZ - Östersund (Frösön)
Uppdaterad: 2022-06-26 09:50
 Vind från S
Vind: S 11 km/h
Temperatur: 25°C
Daggpunkt: 14°C
Luftfuktighet: 51%
Barometer: 1018 hPa
Summering: Klart
Sikt: mer än 10 km
2022/06/26 07:50 ESNZ 260750Z 18006KT 150V210 CAVOK 25/14 Q1018
Klart
Klart
  Visa detaljer för Östersund (Frösön)
Avstånd från stationen: SSO 216kmEKCH - Köpenhamn (Kastrup)
Uppdaterad: 2022-06-26 09:50
 Vind från SO
Vind: SO 11 km/h
Temperatur: 23°C
Daggpunkt: 18°C
Luftfuktighet: 74%
Barometer: 1014 hPa
Moln: Delvis molnigt
Sikt: 10 km
Molninformation: Delvis molnigt 3962 m
2022/06/26 07:50 EKCH 260750Z AUTO 14006KT 9999 SCT130/// 23/18 Q1014 NOSIG
Delvis molnigt
Delvis molnigt
  Visa detaljer för Köpenhamn (Kastrup)
Avstånd från stationen: SV 263kmEKBI - Billund Airport
Uppdaterad: 2022-06-26 09:50
 Vind från OSO
Vind: OSO 17 km/h
Temperatur: 23°C
Daggpunkt: 18°C
Luftfuktighet: 74%
Barometer: 1013 hPa
Moln: Delvis molnigt
Sikt: 10 km
Molninformation: Delvis molnigt 2743 m
2022/06/26 07:50 EKBI 260750Z AUTO 12009KT 090V150 9999 SCT090/// 23/18 Q1013
Delvis molnigt
Delvis molnigt
  Visa detaljer för Billund Airport
Avstånd från stationen: N 302kmENGM - Oslo (Gardermoen)
Uppdaterad: 2022-06-26 10:20
 Vind från O
Vind: O 9 km/h
Temperatur: 21°C
Daggpunkt: 16°C
Luftfuktighet: 73%
Barometer: 1017 hPa
Moln: Övervägande molnigt
Sikt: 10 km
Molninformation: Delvis molnigt 1372 m
Övervägande molnigt 2225 m
2022/06/26 08:20 ENGM 260820Z 09005KT 050V120 9999 SCT045 BKN073 21/16 Q1017 NOSIG
Övervägande molnigt
Övervägande molnigt
  Visa detaljer för Oslo (Gardermoen)
Avstånd från stationen: NO 540kmEFMA - Mariehamn / Åland
Uppdaterad: 2022-06-26 10:20
 Vind från OSO
Vind: OSO 11 km/h
Temperatur: 26°C
Daggpunkt: 15°C
Luftfuktighet: 51%
Barometer: 1020 hPa
Summering: Klart
Sikt: mer än 10 km
2022/06/26 08:20 EFMA 260820Z AUTO 12006KT 090V170 CAVOK 26/15 Q1020
Klart
Klart
  Visa detaljer för Mariehamn / Åland
Avstånd från stationen: S 558kmEDDT - Berlin (Tegel), Germany
Uppdaterad: 2020-11-09 07:50
Ej aktuell
 Vind från O
Vind: O 11 km/h
Temperatur: 6°C
Vindavkylning: 4°C
Daggpunkt: 5°C
Luftfuktighet: 93%
Barometer: 1027 hPa
Summering: Dimmigt
Moln: Genommulet
Sikt: 3 km
Molninformation: Genommulet 91 m
2020/11/09 06:50 EDDT 090650Z 09006KT 050V120 3000 BR OVC003 06/05 Q1027
Dimmigt, Genommulet
Dimmigt
Genommulet
  Visa detaljer för Berlin (Tegel), Germany
Avstånd från stationen: SV 737kmEHAM - Amsterdam (Schiphol)
Uppdaterad: 2022-06-26 09:55
 Vind från SV
Vind: SV 13 km/h
Temperatur: 18°C
Daggpunkt: 13°C
Luftfuktighet: 73%
Barometer: 1014 hPa
Moln: Delvis molnigt
Sikt: 10 km
Molninformation: Delvis molnigt 518 m
2022/06/26 07:55 EHAM 260755Z 22007KT 160V260 9999 SCT017 18/13 Q1014 NOSIG
Delvis molnigt
Delvis molnigt
  Visa detaljer för Amsterdam (Schiphol)
Avstånd från stationen: ONO 808kmEFHK - Helsingfors (Vantaa)
Uppdaterad: 2022-06-26 10:20
 Vind från varierande
Vind: varierande 6 km/h
Temperatur: 27°C
Värmeindex: 27°C
Daggpunkt: 15°C
Luftfuktighet: 48%
Barometer: 1022 hPa
Summering: Klart
Sikt: mer än 10 km
2022/06/26 08:20 EFHK 260820Z VRB03KT CAVOK 27/15 Q1022 NOSIG
Klart
Klart
  Visa detaljer för Helsingfors (Vantaa)
Avstånd från stationen: SSV 537kmEDDW - Bremen
Uppdaterad: 2022-06-26 09:50
 Vind från VSV
Vind: VSV 17 km/h
Temperatur: 22°C
Daggpunkt: 16°C
Luftfuktighet: 69%
Barometer: 1014 hPa
Summering: Klart
Sikt: mer än 10 km
2022/06/26 07:50 EDDW 260750Z AUTO 25009KT CAVOK 22/16 Q1014 NOSIG
Klart
Klart
  Visa detaljer för Bremen
Avstånd från stationen: SSV 861kmEDDF - Frankfurt am Main
Uppdaterad: 2022-06-26 09:50
 Vind från SV
Vind: SV 11 km/h
Temperatur: 23°C
Daggpunkt: 15°C
Luftfuktighet: 61%
Barometer: 1015 hPa
Moln: Några få moln
Sikt: 10 km
Molninformation: Några få moln 853 m
2022/06/26 07:50 EDDF 260750Z 23006KT 150V260 9999 FEW028 23/15 Q1015 NOSIG
Några få moln
Några få moln
  Visa detaljer för Frankfurt am Main
Avstånd från stationen: SV 880kmEBBR - Bryssel international
Uppdaterad: 2022-06-26 09:50
 Vind från S
Vind: S 9 km/h
Temperatur: 16°C
Daggpunkt: 13°C
Luftfuktighet: 83%
Barometer: 1016 hPa
Moln: Några få moln
Sikt: 10 km
Molninformation: Några få moln 366 m
2022/06/26 07:50 EBBR 260750Z 19005KT 9999 FEW012 16/13 Q1016 NOSIG
Några få moln
Några få moln
  Visa detaljer för Bryssel international
Avstånd från stationen: SV 738kmEHAM - Amsterdam (Schiphol)
Uppdaterad: 2022-06-26 09:55
 Vind från SV
Vind: SV 13 km/h
Temperatur: 18°C
Daggpunkt: 13°C
Luftfuktighet: 73%
Barometer: 1014 hPa
Moln: Delvis molnigt
Sikt: 10 km
Molninformation: Delvis molnigt 518 m
2022/06/26 07:55 EHAM 260755Z 22007KT 160V260 9999 SCT017 18/13 Q1014 NOSIG
Delvis molnigt
Delvis molnigt
  Visa detaljer för Amsterdam (Schiphol)
Avstånd från stationen: SV 1044kmEGLL - London (Heathrow)
Uppdaterad: 2022-06-26 09:50
 Vind från SSV
Vind: SSV 24 km/h
Temperatur: 17°C
Daggpunkt: 8°C
Luftfuktighet: 56%
Barometer: 1011 hPa
Moln: Övervägande molnigt
Sikt: 10 km
Molninformation: Övervägande molnigt 975 m
2022/06/26 07:50 EGLL 260750Z AUTO 20013KT 9999 BKN032 17/08 Q1011
Övervägande molnigt
Övervägande molnigt
  Visa detaljer för London (Heathrow)
Avstånd från stationen: SV 1132kmLFPG - Paris (Charles de Gaulle)
Uppdaterad: 2022-06-26 10:00
 Vind från varierande
Vind: varierande 6 km/h
Temperatur: 16°C
Daggpunkt: 9°C
Luftfuktighet: 63%
Barometer: 1016 hPa
Moln: Övervägande molnigt
Sikt: 10 km
Molninformation: Några få moln 792 m
Delvis molnigt 1859 m
Övervägande molnigt 3048 m
2022/06/26 08:00 LFPG 260800Z VRB03KT 9999 FEW026 SCT061 BKN100 16/09 Q1016 NOSIG
Övervägande molnigt
Övervägande molnigt
  Visa detaljer för Paris (Charles de Gaulle)
Avstånd från stationen: SSV 1142kmLSZH - Zürich Airport
Uppdaterad: 2022-06-26 09:50
 Vind från NNV
Vind: NNV 7 km/h
Temperatur: 20°C
Daggpunkt: 16°C
Luftfuktighet: 78%
Barometer: 1016 hPa
Summering: Klart
Sikt: mer än 10 km
2022/06/26 07:50 LSZH 260750Z 34004KT 310V010 CAVOK 20/16 Q1016 NOSIG
Klart
Klart
  Visa detaljer för Zürich Airport
Avstånd från stationen: S 1749kmLIRF - Rome Airport (Fiumicino - Leonardo da Vinci)
Uppdaterad: 2022-06-26 09:50
 Vind från O
Vind: O 13 km/h
Temperatur: 30°C
Värmeindex: 31°C
Daggpunkt: 17°C
Luftfuktighet: 46%
Barometer: 1014 hPa
Summering: Klart
Sikt: mer än 10 km
2022/06/26 07:50 LIRF 260750Z 08007KT CAVOK 30/17 Q1014 NOSIG
Klart
Klart
  Visa detaljer för Rome Airport (Fiumicino - Leonardo da Vinci)
Avstånd från stationen: SO 2679kmLTAI - Antalya
Uppdaterad: 2022-06-26 09:50
 Vind från N
Vind: N 20 km/h
Temperatur: 31°C
Daggpunkt: 11°C
Luftfuktighet: 29%
Barometer: 1008 hPa
Moln: Några få moln
Sikt: 10 km
Molninformation: Några få moln 914 m
2022/06/26 07:50 LTAI 260750Z 01011KT 9999 FEW030 31/11 Q1008 NOSIG
Några få moln
Några få moln
  Visa detaljer för Antalya
Avstånd från stationen: VSV 6074kmKJFK - New Your (JFK)
Uppdaterad: 2022-06-26 09:51
 Vind från S
Vind: S 9 km/h
Temperatur: 20°C
Daggpunkt: 18°C
Luftfuktighet: 88%
Barometer: 1019.6 hPa
Moln: Några få moln
Sikt: 16 km
Molninformation: Några få moln 7620 m
2022/06/26 07:51 KJFK 260751Z 19005KT 10SM FEW250 20/18 A3011 RMK AO2 SLP195 T02000183 $
Några få moln
Några få moln
  Visa detaljer för New Your (JFK)
Avstånd från stationen: VSV 8848kmKLAX - Los Angeles International Airport
Uppdaterad: 2022-06-26 09:53
 Vind från VSV
Vind: VSV 11 km/h
Temperatur: 17°C
Daggpunkt: 16°C
Luftfuktighet: 94%
Barometer: 1014.2 hPa
Summering: Dimmigt
Moln: Övervägande molnigt
Sikt: 10 km
Molninformation: Delvis molnigt 213 m
Övervägande molnigt 274 m
2022/06/26 07:53 KLAX 260753Z 24006KT 6SM BR SCT007 BKN009 17/16 A2995 RMK AO2 SLP140 VIS W 2 T01720156 402220161
Dimmigt, Övervägande molnigt
Dimmigt
Övervägande molnigt
  Visa detaljer för Los Angeles International Airport
Avstånd från stationen: SO 4968kmOMDB - Dubai International Airport
Uppdaterad: 2022-06-26 10:00
 Vind från V
Vind: V 9 km/h
Temperatur: 40°C
Daggpunkt: 22°C
Luftfuktighet: 35%
Barometer: 996 hPa
Summering: Klart
Sikt: mer än 10 km
2022/06/26 08:00 OMDB 260800Z 26005KT 220V310 CAVOK 40/22 Q0996 NOSIG
Klart
Klart
  Visa detaljer för Dubai International Airport
Avstånd från stationen: OSO 8570kmRJTT - Tokyo International Airport
Uppdaterad: 2022-06-26 10:00
 Vind från S
Vind: S 28 km/h
Moln: Några få moln
Sikt: 10 km
Molninformation: Några få moln 914 m
2022/06/26 08:00 RJTT 260800Z 19015KT 9999 FEW030 BKN/// 29/22 Q1011 NOSIG
Några få moln
Några få moln
  Visa detaljer för Tokyo International Airport
Avstånd från stationen: OSO 7125kmZBAA - Peking (Beijing Capital)
Uppdaterad: 2022-06-26 10:00
 Vind från O
Vind: O 14 km/h
Temperatur: 32°C
Värmeindex: 34°C
Daggpunkt: 20°C
Luftfuktighet: 49%
Barometer: 1000 hPa
Summering: Klart
Sikt: mer än 10 km
2022/06/26 08:00 ZBAA 260800Z 08004MPS 050V120 CAVOK 32/20 Q1000 NOSIG
Klart
Klart
  Visa detaljer för Peking (Beijing Capital)
VÄDER KURIOSA -  Weather TermsIce Storm Warning - Accumulations of 1/4 inch or more of freezing rain.